sensor_id;sensor_type;location;lat;lon;timestamp;P1;durP1;ratioP1;P2;durP2;ratioP2
68089;SDS011;54880;50.986;6.990;2022-09-21T00:02:07;8.33;;;3.50;;
68089;SDS011;54880;50.986;6.990;2022-09-21T00:04:33;9.00;;;3.53;;
68089;SDS011;54880;50.986;6.990;2022-09-21T00:06:58;11.57;;;3.50;;
68089;SDS011;54880;50.986;6.990;2022-09-21T00:09:24;12.30;;;3.37;;
68089;SDS011;54880;50.986;6.990;2022-09-21T00:11:49;11.43;;;3.50;;
68089;SDS011;54880;50.986;6.990;2022-09-21T00:14:14;10.37;;;3.13;;
68089;SDS011;54880;50.986;6.990;2022-09-21T00:16:40;7.87;;;3.53;;
68089;SDS011;54880;50.986;6.990;2022-09-21T00:19:06;10.63;;;3.47;;
68089;SDS011;54880;50.986;6.990;2022-09-21T00:21:31;9.43;;;3.23;;
68089;SDS011;54880;50.986;6.990;2022-09-21T00:23:57;10.10;;;3.70;;
68089;SDS011;54880;50.986;6.990;2022-09-21T00:26:24;9.93;;;3.20;;
68089;SDS011;54880;50.986;6.990;2022-09-21T00:29:08;11.10;;;3.45;;
68089;SDS011;54880;50.986;6.990;2022-09-21T00:31:34;11.23;;;3.38;;
68089;SDS011;54880;50.986;6.990;2022-09-21T00:33:59;11.73;;;3.20;;
68089;SDS011;54880;50.986;6.990;2022-09-21T00:36:25;9.27;;;3.40;;
68089;SDS011;54880;50.986;6.990;2022-09-21T00:38:51;8.38;;;3.60;;
68089;SDS011;54880;50.986;6.990;2022-09-21T00:41:17;11.18;;;3.67;;
68089;SDS011;54880;50.986;6.990;2022-09-21T00:43:46;12.70;;;3.37;;
68089;SDS011;54880;50.986;6.990;2022-09-21T00:46:14;8.82;;;3.35;;
68089;SDS011;54880;50.986;6.990;2022-09-21T00:48:40;10.38;;;3.63;;
68089;SDS011;54880;50.986;6.990;2022-09-21T00:51:06;11.20;;;3.30;;
68089;SDS011;54880;50.986;6.990;2022-09-21T00:53:32;10.93;;;3.27;;
68089;SDS011;54880;50.986;6.990;2022-09-21T00:55:58;9.68;;;3.80;;
68089;SDS011;54880;50.986;6.990;2022-09-21T00:58:29;9.48;;;3.22;;
68089;SDS011;54880;50.986;6.990;2022-09-21T01:00:55;8.43;;;3.30;;
68089;SDS011;54880;50.986;6.990;2022-09-21T01:03:22;11.00;;;3.53;;
68089;SDS011;54880;50.986;6.990;2022-09-21T01:05:47;10.50;;;3.33;;
68089;SDS011;54880;50.986;6.990;2022-09-21T01:08:13;11.07;;;3.40;;
68089;SDS011;54880;50.986;6.990;2022-09-21T01:10:53;10.57;;;3.40;;
68089;SDS011;54880;50.986;6.990;2022-09-21T01:13:59;9.30;;;3.17;;
68089;SDS011;54880;50.986;6.990;2022-09-21T01:16:14;8.20;;;3.60;;
68089;SDS011;54880;50.986;6.990;2022-09-21T01:18:44;12.43;;;3.88;;
68089;SDS011;54880;50.986;6.990;2022-09-21T01:21:16;9.20;;;4.05;;
68089;SDS011;54880;50.986;6.990;2022-09-21T01:24:00;8.68;;;3.63;;
68089;SDS011;54880;50.986;6.990;2022-09-21T01:26:44;9.10;;;3.60;;
68089;SDS011;54880;50.986;6.990;2022-09-21T01:32:19;9.15;;;3.40;;
68089;SDS011;54880;50.986;6.990;2022-09-21T01:34:51;9.27;;;3.80;;
68089;SDS011;54880;50.986;6.990;2022-09-21T01:37:19;8.93;;;3.65;;
68089;SDS011;54880;50.986;6.990;2022-09-21T01:39:46;11.43;;;3.67;;
68089;SDS011;54880;50.986;6.990;2022-09-21T01:42:13;9.40;;;3.45;;
68089;SDS011;54880;50.986;6.990;2022-09-21T01:44:40;8.50;;;3.13;;
68089;SDS011;54880;50.986;6.990;2022-09-21T01:47:08;8.10;;;3.38;;
68089;SDS011;54880;50.986;6.990;2022-09-21T01:49:35;7.18;;;3.03;;
68089;SDS011;54880;50.986;6.990;2022-09-21T01:52:22;10.17;;;3.57;;
68089;SDS011;54880;50.986;6.990;2022-09-21T01:54:51;10.68;;;3.50;;
68089;SDS011;54880;50.986;6.990;2022-09-21T01:57:21;10.25;;;3.10;;
68089;SDS011;54880;50.986;6.990;2022-09-21T01:59:56;7.82;;;3.50;;
68089;SDS011;54880;50.986;6.990;2022-09-21T02:02:26;8.50;;;3.03;;
68089;SDS011;54880;50.986;6.990;2022-09-21T02:04:52;10.10;;;3.30;;
68089;SDS011;54880;50.986;6.990;2022-09-21T02:07:18;8.85;;;3.30;;
68089;SDS011;54880;50.986;6.990;2022-09-21T02:09:43;10.60;;;3.07;;
68089;SDS011;54880;50.986;6.990;2022-09-21T02:12:11;6.82;;;3.30;;
68089;SDS011;54880;50.986;6.990;2022-09-21T02:14:36;7.57;;;3.20;;
68089;SDS011;54880;50.986;6.990;2022-09-21T02:17:14;10.07;;;3.10;;
68089;SDS011;54880;50.986;6.990;2022-09-21T02:19:54;8.23;;;3.33;;
68089;SDS011;54880;50.986;6.990;2022-09-21T02:24:48;9.23;;;3.13;;
68089;SDS011;54880;50.986;6.990;2022-09-21T02:29:55;8.33;;;3.10;;
68089;SDS011;54880;50.986;6.990;2022-09-21T02:37:44;9.00;;;3.47;;
68089;SDS011;54880;50.986;6.990;2022-09-21T02:42:39;13.23;;;3.37;;
68089;SDS011;54880;50.986;6.990;2022-09-21T02:45:10;8.90;;;3.47;;
68089;SDS011;54880;50.986;6.990;2022-09-21T02:50:04;9.77;;;3.27;;
68089;SDS011;54880;50.986;6.990;2022-09-21T02:52:30;7.97;;;3.00;;
68089;SDS011;54880;50.986;6.990;2022-09-21T02:54:56;8.02;;;2.97;;
68089;SDS011;54880;50.986;6.990;2022-09-21T02:57:22;8.97;;;3.33;;
68089;SDS011;54880;50.986;6.990;2022-09-21T02:59:48;10.40;;;3.45;;
68089;SDS011;54880;50.986;6.990;2022-09-21T03:02:14;9.05;;;3.13;;
68089;SDS011;54880;50.986;6.990;2022-09-21T03:04:40;10.53;;;3.20;;
68089;SDS011;54880;50.986;6.990;2022-09-21T03:07:06;10.30;;;3.30;;
68089;SDS011;54880;50.986;6.990;2022-09-21T03:09:31;8.68;;;3.17;;
68089;SDS011;54880;50.986;6.990;2022-09-21T03:11:57;7.87;;;2.90;;
68089;SDS011;54880;50.986;6.990;2022-09-21T03:14:22;11.50;;;3.20;;
68089;SDS011;54880;50.986;6.990;2022-09-21T03:16:47;9.97;;;2.87;;
68089;SDS011;54880;50.986;6.990;2022-09-21T03:19:12;7.27;;;3.07;;
68089;SDS011;54880;50.986;6.990;2022-09-21T03:21:38;10.27;;;2.73;;
68089;SDS011;54880;50.986;6.990;2022-09-21T03:24:03;9.50;;;3.20;;
68089;SDS011;54880;50.986;6.990;2022-09-21T03:26:28;9.60;;;3.10;;
68089;SDS011;54880;50.986;6.990;2022-09-21T03:28:54;7.80;;;3.30;;
68089;SDS011;54880;50.986;6.990;2022-09-21T03:31:19;8.60;;;2.63;;
68089;SDS011;54880;50.986;6.990;2022-09-21T03:33:45;7.82;;;3.17;;
68089;SDS011;54880;50.986;6.990;2022-09-21T03:36:10;8.68;;;3.30;;
68089;SDS011;54880;50.986;6.990;2022-09-21T03:38:36;10.07;;;3.13;;
68089;SDS011;54880;50.986;6.990;2022-09-21T03:41:01;8.82;;;2.78;;
68089;SDS011;54880;50.986;6.990;2022-09-21T03:43:27;7.30;;;3.37;;
68089;SDS011;54880;50.986;6.990;2022-09-21T03:45:52;10.73;;;3.50;;
68089;SDS011;54880;50.986;6.990;2022-09-21T03:48:17;9.43;;;3.20;;
68089;SDS011;54880;50.986;6.990;2022-09-21T03:50:43;8.50;;;3.67;;
68089;SDS011;54880;50.986;6.990;2022-09-21T03:53:08;8.60;;;3.33;;
68089;SDS011;54880;50.986;6.990;2022-09-21T03:55:34;8.95;;;3.30;;
68089;SDS011;54880;50.986;6.990;2022-09-21T03:57:59;8.60;;;3.47;;
68089;SDS011;54880;50.986;6.990;2022-09-21T04:00:25;10.30;;;3.30;;
68089;SDS011;54880;50.986;6.990;2022-09-21T04:02:50;10.70;;;3.30;;
68089;SDS011;54880;50.986;6.990;2022-09-21T04:05:15;6.73;;;3.10;;
68089;SDS011;54880;50.986;6.990;2022-09-21T04:07:41;10.67;;;3.47;;
68089;SDS011;54880;50.986;6.990;2022-09-21T04:10:07;10.25;;;3.28;;
68089;SDS011;54880;50.986;6.990;2022-09-21T04:12:35;8.25;;;3.00;;
68089;SDS011;54880;50.986;6.990;2022-09-21T04:15:01;10.80;;;3.97;;
68089;SDS011;54880;50.986;6.990;2022-09-21T04:17:26;9.07;;;3.00;;
68089;SDS011;54880;50.986;6.990;2022-09-21T04:19:52;7.45;;;3.20;;
68089;SDS011;54880;50.986;6.990;2022-09-21T04:22:17;8.73;;;3.88;;
68089;SDS011;54880;50.986;6.990;2022-09-21T04:24:42;10.57;;;3.33;;
68089;SDS011;54880;50.986;6.990;2022-09-21T04:27:08;9.73;;;3.50;;
68089;SDS011;54880;50.986;6.990;2022-09-21T04:29:34;9.02;;;3.40;;
68089;SDS011;54880;50.986;6.990;2022-09-21T04:32:00;8.80;;;3.60;;
68089;SDS011;54880;50.986;6.990;2022-09-21T04:34:25;9.45;;;3.42;;
68089;SDS011;54880;50.986;6.990;2022-09-21T04:36:50;7.75;;;3.47;;
68089;SDS011;54880;50.986;6.990;2022-09-21T04:39:17;7.82;;;3.40;;
68089;SDS011;54880;50.986;6.990;2022-09-21T04:41:42;9.90;;;3.50;;
68089;SDS011;54880;50.986;6.990;2022-09-21T04:44:08;9.87;;;3.50;;
68089;SDS011;54880;50.986;6.990;2022-09-21T04:46:33;10.73;;;3.97;;
68089;SDS011;54880;50.986;6.990;2022-09-21T04:48:58;8.90;;;3.30;;
68089;SDS011;54880;50.986;6.990;2022-09-21T04:51:24;12.97;;;3.97;;
68089;SDS011;54880;50.986;6.990;2022-09-21T04:53:49;9.20;;;3.28;;
68089;SDS011;54880;50.986;6.990;2022-09-21T04:56:15;9.23;;;3.72;;
68089;SDS011;54880;50.986;6.990;2022-09-21T04:58:41;9.50;;;4.25;;
68089;SDS011;54880;50.986;6.990;2022-09-21T05:01:06;9.57;;;3.42;;
68089;SDS011;54880;50.986;6.990;2022-09-21T05:03:31;10.73;;;3.40;;
68089;SDS011;54880;50.986;6.990;2022-09-21T05:05:57;8.50;;;3.23;;
68089;SDS011;54880;50.986;6.990;2022-09-21T05:08:23;10.90;;;3.70;;
68089;SDS011;54880;50.986;6.990;2022-09-21T05:11:08;11.20;;;3.70;;
68089;SDS011;54880;50.986;6.990;2022-09-21T05:13:34;10.80;;;4.10;;
68089;SDS011;54880;50.986;6.990;2022-09-21T05:15:59;9.13;;;3.73;;
68089;SDS011;54880;50.986;6.990;2022-09-21T05:18:24;10.67;;;4.40;;
68089;SDS011;54880;50.986;6.990;2022-09-21T05:20:53;12.03;;;4.50;;
68089;SDS011;54880;50.986;6.990;2022-09-21T05:23:19;9.35;;;3.80;;
68089;SDS011;54880;50.986;6.990;2022-09-21T05:25:44;12.70;;;3.97;;
68089;SDS011;54880;50.986;6.990;2022-09-21T05:28:09;13.33;;;4.10;;
68089;SDS011;54880;50.986;6.990;2022-09-21T05:30:35;8.97;;;4.00;;
68089;SDS011;54880;50.986;6.990;2022-09-21T05:33:00;11.03;;;4.30;;
68089;SDS011;54880;50.986;6.990;2022-09-21T05:35:37;11.50;;;4.53;;
68089;SDS011;54880;50.986;6.990;2022-09-21T05:38:13;11.68;;;4.32;;
68089;SDS011;54880;50.986;6.990;2022-09-21T05:40:40;14.90;;;4.57;;
68089;SDS011;54880;50.986;6.990;2022-09-21T05:43:05;10.67;;;4.40;;
68089;SDS011;54880;50.986;6.990;2022-09-21T05:45:30;9.20;;;3.70;;
68089;SDS011;54880;50.986;6.990;2022-09-21T05:52:50;9.43;;;4.50;;
68089;SDS011;54880;50.986;6.990;2022-09-21T05:57:51;14.68;;;4.50;;
68089;SDS011;54880;50.986;6.990;2022-09-21T06:00:19;10.32;;;4.50;;
68089;SDS011;54880;50.986;6.990;2022-09-21T06:03:03;12.32;;;4.78;;
68089;SDS011;54880;50.986;6.990;2022-09-21T06:05:32;12.25;;;5.00;;
68089;SDS011;54880;50.986;6.990;2022-09-21T06:07:57;10.73;;;5.07;;
68089;SDS011;54880;50.986;6.990;2022-09-21T06:10:22;10.60;;;4.80;;
68089;SDS011;54880;50.986;6.990;2022-09-21T06:12:49;12.57;;;4.53;;
68089;SDS011;54880;50.986;6.990;2022-09-21T06:15:14;10.82;;;4.35;;
68089;SDS011;54880;50.986;6.990;2022-09-21T06:17:40;12.17;;;4.57;;
68089;SDS011;54880;50.986;6.990;2022-09-21T06:20:05;10.63;;;4.37;;
68089;SDS011;54880;50.986;6.990;2022-09-21T06:22:31;10.30;;;4.68;;
68089;SDS011;54880;50.986;6.990;2022-09-21T06:24:57;10.40;;;4.77;;
68089;SDS011;54880;50.986;6.990;2022-09-21T06:27:22;10.73;;;4.77;;
68089;SDS011;54880;50.986;6.990;2022-09-21T06:29:47;10.80;;;4.77;;
68089;SDS011;54880;50.986;6.990;2022-09-21T06:32:12;13.10;;;5.37;;
68089;SDS011;54880;50.986;6.990;2022-09-21T06:34:37;15.73;;;5.10;;
68089;SDS011;54880;50.986;6.990;2022-09-21T06:37:03;14.33;;;5.57;;
68089;SDS011;54880;50.986;6.990;2022-09-21T06:39:28;13.57;;;5.20;;
68089;SDS011;54880;50.986;6.990;2022-09-21T06:41:53;15.00;;;5.13;;
68089;SDS011;54880;50.986;6.990;2022-09-21T06:44:20;11.07;;;5.13;;
68089;SDS011;54880;50.986;6.990;2022-09-21T06:46:45;9.67;;;5.03;;
68089;SDS011;54880;50.986;6.990;2022-09-21T06:49:11;11.47;;;5.27;;
68089;SDS011;54880;50.986;6.990;2022-09-21T06:51:36;11.30;;;5.60;;
68089;SDS011;54880;50.986;6.990;2022-09-21T06:54:01;14.77;;;5.30;;
68089;SDS011;54880;50.986;6.990;2022-09-21T06:56:27;13.03;;;5.37;;
68089;SDS011;54880;50.986;6.990;2022-09-21T06:58:52;12.07;;;5.23;;
68089;SDS011;54880;50.986;6.990;2022-09-21T07:01:17;14.60;;;5.63;;
68089;SDS011;54880;50.986;6.990;2022-09-21T07:03:43;9.68;;;4.97;;
68089;SDS011;54880;50.986;6.990;2022-09-21T07:06:09;9.63;;;4.83;;
68089;SDS011;54880;50.986;6.990;2022-09-21T07:08:39;12.53;;;5.60;;
68089;SDS011;54880;50.986;6.990;2022-09-21T07:11:05;9.55;;;5.25;;
68089;SDS011;54880;50.986;6.990;2022-09-21T07:13:30;10.03;;;5.27;;
68089;SDS011;54880;50.986;6.990;2022-09-21T07:15:55;9.37;;;5.13;;
68089;SDS011;54880;50.986;6.990;2022-09-21T07:18:21;12.40;;;5.93;;
68089;SDS011;54880;50.986;6.990;2022-09-21T07:20:46;13.30;;;6.07;;
68089;SDS011;54880;50.986;6.990;2022-09-21T07:23:15;12.32;;;5.68;;
68089;SDS011;54880;50.986;6.990;2022-09-21T07:25:45;11.35;;;5.22;;
68089;SDS011;54880;50.986;6.990;2022-09-21T07:28:12;10.02;;;5.40;;
68089;SDS011;54880;50.986;6.990;2022-09-21T07:30:38;17.17;;;5.80;;
68089;SDS011;54880;50.986;6.990;2022-09-21T07:33:03;13.07;;;5.90;;
68089;SDS011;54880;50.986;6.990;2022-09-21T07:35:29;12.47;;;5.73;;
68089;SDS011;54880;50.986;6.990;2022-09-21T07:37:58;14.35;;;6.00;;
68089;SDS011;54880;50.986;6.990;2022-09-21T07:40:24;13.75;;;5.93;;
68089;SDS011;54880;50.986;6.990;2022-09-21T07:42:49;11.80;;;6.17;;
68089;SDS011;54880;50.986;6.990;2022-09-21T07:45:14;11.43;;;5.37;;
68089;SDS011;54880;50.986;6.990;2022-09-21T07:47:39;12.93;;;6.10;;
68089;SDS011;54880;50.986;6.990;2022-09-21T07:50:05;10.37;;;5.80;;
68089;SDS011;54880;50.986;6.990;2022-09-21T07:52:30;12.68;;;6.30;;
68089;SDS011;54880;50.986;6.990;2022-09-21T07:54:55;13.07;;;5.87;;
68089;SDS011;54880;50.986;6.990;2022-09-21T07:57:21;12.03;;;5.80;;
68089;SDS011;54880;50.986;6.990;2022-09-21T08:00:05;11.80;;;6.28;;
68089;SDS011;54880;50.986;6.990;2022-09-21T08:02:36;12.65;;;5.68;;
68089;SDS011;54880;50.986;6.990;2022-09-21T08:05:02;12.70;;;6.30;;
68089;SDS011;54880;50.986;6.990;2022-09-21T08:07:27;13.47;;;6.63;;
68089;SDS011;54880;50.986;6.990;2022-09-21T08:09:52;15.70;;;6.10;;
68089;SDS011;54880;50.986;6.990;2022-09-21T08:12:17;14.37;;;6.30;;
68089;SDS011;54880;50.986;6.990;2022-09-21T08:14:43;16.70;;;6.43;;
68089;SDS011;54880;50.986;6.990;2022-09-21T08:17:09;14.53;;;6.60;;
68089;SDS011;54880;50.986;6.990;2022-09-21T08:19:34;12.07;;;6.20;;
68089;SDS011;54880;50.986;6.990;2022-09-21T08:22:00;12.25;;;6.30;;
68089;SDS011;54880;50.986;6.990;2022-09-21T08:24:26;14.27;;;6.47;;
68089;SDS011;54880;50.986;6.990;2022-09-21T08:26:51;15.73;;;6.60;;
68089;SDS011;54880;50.986;6.990;2022-09-21T08:29:16;15.07;;;6.30;;
68089;SDS011;54880;50.986;6.990;2022-09-21T08:31:42;12.30;;;5.38;;
68089;SDS011;54880;50.986;6.990;2022-09-21T08:34:08;9.90;;;5.27;;
68089;SDS011;54880;50.986;6.990;2022-09-21T08:36:33;10.73;;;5.35;;
68089;SDS011;54880;50.986;6.990;2022-09-21T08:38:58;11.03;;;5.30;;
68089;SDS011;54880;50.986;6.990;2022-09-21T08:41:30;12.93;;;5.10;;
68089;SDS011;54880;50.986;6.990;2022-09-21T08:44:44;11.33;;;5.47;;
68089;SDS011;54880;50.986;6.990;2022-09-21T08:47:01;11.25;;;5.47;;
68089;SDS011;54880;50.986;6.990;2022-09-21T08:49:27;11.60;;;5.03;;
68089;SDS011;54880;50.986;6.990;2022-09-21T08:51:55;12.68;;;5.00;;
68089;SDS011;54880;50.986;6.990;2022-09-21T08:56:46;11.53;;;5.07;;
68089;SDS011;54880;50.986;6.990;2022-09-21T08:59:12;12.82;;;4.97;;
68089;SDS011;54880;50.986;6.990;2022-09-21T09:14:20;9.60;;;3.43;;
68089;SDS011;54880;50.986;6.990;2022-09-21T09:19:42;10.05;;;3.83;;
68089;SDS011;54880;50.986;6.990;2022-09-21T09:22:10;10.50;;;3.45;;
68089;SDS011;54880;50.986;6.990;2022-09-21T09:24:49;10.02;;;4.28;;
68089;SDS011;54880;50.986;6.990;2022-09-21T09:32:13;10.48;;;3.95;;
68089;SDS011;54880;50.986;6.990;2022-09-21T09:34:41;13.23;;;4.32;;
68089;SDS011;54880;50.986;6.990;2022-09-21T09:37:11;13.80;;;3.90;;
68089;SDS011;54880;50.986;6.990;2022-09-21T09:39:37;10.50;;;4.30;;
68089;SDS011;54880;50.986;6.990;2022-09-21T09:52:22;9.93;;;3.80;;
68089;SDS011;54880;50.986;6.990;2022-09-21T09:54:47;12.20;;;4.43;;
68089;SDS011;54880;50.986;6.990;2022-09-21T09:57:13;15.53;;;5.27;;
68089;SDS011;54880;50.986;6.990;2022-09-21T09:59:46;10.82;;;4.13;;
68089;SDS011;54880;50.986;6.990;2022-09-21T10:02:19;12.00;;;4.57;;
68089;SDS011;54880;50.986;6.990;2022-09-21T10:04:56;11.65;;;4.55;;
68089;SDS011;54880;50.986;6.990;2022-09-21T10:07:32;12.63;;;4.57;;
68089;SDS011;54880;50.986;6.990;2022-09-21T10:09:57;11.63;;;4.60;;
68089;SDS011;54880;50.986;6.990;2022-09-21T10:12:23;13.82;;;4.32;;
68089;SDS011;54880;50.986;6.990;2022-09-21T10:14:50;11.95;;;4.20;;
68089;SDS011;54880;50.986;6.990;2022-09-21T10:17:16;12.75;;;4.05;;
68089;SDS011;54880;50.986;6.990;2022-09-21T10:19:42;10.43;;;4.32;;
68089;SDS011;54880;50.986;6.990;2022-09-21T10:22:12;10.63;;;3.87;;
68089;SDS011;54880;50.986;6.990;2022-09-21T10:24:39;9.02;;;3.80;;
68089;SDS011;54880;50.986;6.990;2022-09-21T10:27:11;12.65;;;3.90;;
68089;SDS011;54880;50.986;6.990;2022-09-21T10:34:37;9.15;;;3.17;;
68089;SDS011;54880;50.986;6.990;2022-09-21T10:39:48;10.85;;;2.95;;
68089;SDS011;54880;50.986;6.990;2022-09-21T10:42:14;6.13;;;2.60;;
68089;SDS011;54880;50.986;6.990;2022-09-21T10:44:41;6.70;;;2.80;;
68089;SDS011;54880;50.986;6.990;2022-09-21T10:49:46;8.80;;;2.60;;
68089;SDS011;54880;50.986;6.990;2022-09-21T10:52:12;9.38;;;2.50;;
68089;SDS011;54880;50.986;6.990;2022-09-21T10:54:37;6.87;;;2.27;;
68089;SDS011;54880;50.986;6.990;2022-09-21T10:57:06;7.00;;;2.60;;
68089;SDS011;54880;50.986;6.990;2022-09-21T10:59:33;8.32;;;2.45;;
68089;SDS011;54880;50.986;6.990;2022-09-21T11:02:00;8.30;;;2.13;;
68089;SDS011;54880;50.986;6.990;2022-09-21T11:07:00;15.32;;;2.30;;
68089;SDS011;54880;50.986;6.990;2022-09-21T11:09:28;9.82;;;2.17;;
68089;SDS011;54880;50.986;6.990;2022-09-21T11:14:31;7.90;;;2.50;;
68089;SDS011;54880;50.986;6.990;2022-09-21T11:17:00;8.85;;;2.22;;
68089;SDS011;54880;50.986;6.990;2022-09-21T11:22:38;6.47;;;1.60;;
68089;SDS011;54880;50.986;6.990;2022-09-21T11:27:38;8.15;;;1.88;;
68089;SDS011;54880;50.986;6.990;2022-09-21T11:37:39;6.43;;;1.65;;
68089;SDS011;54880;50.986;6.990;2022-09-21T11:40:13;7.53;;;1.50;;
68089;SDS011;54880;50.986;6.990;2022-09-21T11:47:59;11.47;;;1.83;;
68089;SDS011;54880;50.986;6.990;2022-09-21T11:56:02;6.25;;;1.70;;
68089;SDS011;54880;50.986;6.990;2022-09-21T11:58:34;10.70;;;1.60;;
68089;SDS011;54880;50.986;6.990;2022-09-21T12:01:07;7.43;;;1.50;;
68089;SDS011;54880;50.986;6.990;2022-09-21T12:06:13;11.13;;;1.67;;
68089;SDS011;54880;50.986;6.990;2022-09-21T12:08:57;5.20;;;1.25;;
68089;SDS011;54880;50.986;6.990;2022-09-21T12:14:01;5.97;;;1.10;;
68089;SDS011;54880;50.986;6.990;2022-09-21T12:21:39;6.43;;;1.20;;
68089;SDS011;54880;50.986;6.990;2022-09-21T12:24:17;5.28;;;1.00;;
68089;SDS011;54880;50.986;6.990;2022-09-21T12:26:44;5.45;;;1.30;;
68089;SDS011;54880;50.986;6.990;2022-09-21T12:29:16;6.43;;;1.10;;
68089;SDS011;54880;50.986;6.990;2022-09-21T12:34:18;5.45;;;1.50;;
68089;SDS011;54880;50.986;6.990;2022-09-21T12:36:46;5.85;;;1.20;;
68089;SDS011;54880;50.986;6.990;2022-09-21T12:39:20;5.30;;;1.05;;
68089;SDS011;54880;50.986;6.990;2022-09-21T12:42:01;4.63;;;1.20;;
68089;SDS011;54880;50.986;6.990;2022-09-21T12:47:16;7.53;;;1.50;;
68089;SDS011;54880;50.986;6.990;2022-09-21T12:49:44;5.93;;;1.23;;
68089;SDS011;54880;50.986;6.990;2022-09-21T12:52:21;6.03;;;1.20;;
68089;SDS011;54880;50.986;6.990;2022-09-21T12:54:50;6.80;;;1.30;;
68089;SDS011;54880;50.986;6.990;2022-09-21T12:57:39;5.95;;;1.33;;
68089;SDS011;54880;50.986;6.990;2022-09-21T13:00:09;5.22;;;1.38;;
68089;SDS011;54880;50.986;6.990;2022-09-21T13:02:42;5.88;;;1.00;;
68089;SDS011;54880;50.986;6.990;2022-09-21T13:05:13;5.88;;;1.10;;
68089;SDS011;54880;50.986;6.990;2022-09-21T13:13:26;6.63;;;1.05;;
68089;SDS011;54880;50.986;6.990;2022-09-21T13:15:52;5.50;;;1.00;;
68089;SDS011;54880;50.986;6.990;2022-09-21T13:18:20;5.40;;;1.27;;
68089;SDS011;54880;50.986;6.990;2022-09-21T13:20:47;6.07;;;1.02;;
68089;SDS011;54880;50.986;6.990;2022-09-21T13:23:14;5.13;;;1.20;;
68089;SDS011;54880;50.986;6.990;2022-09-21T13:25:40;3.78;;;0.80;;
68089;SDS011;54880;50.986;6.990;2022-09-21T13:28:16;5.70;;;1.20;;
68089;SDS011;54880;50.986;6.990;2022-09-21T13:38:22;5.27;;;1.33;;
68089;SDS011;54880;50.986;6.990;2022-09-21T13:40:48;5.43;;;1.00;;
68089;SDS011;54880;50.986;6.990;2022-09-21T13:43:15;11.23;;;1.65;;
68089;SDS011;54880;50.986;6.990;2022-09-21T13:48:16;6.30;;;1.13;;
68089;SDS011;54880;50.986;6.990;2022-09-21T13:50:42;6.97;;;1.23;;
68089;SDS011;54880;50.986;6.990;2022-09-21T13:53:19;5.50;;;1.02;;
68089;SDS011;54880;50.986;6.990;2022-09-21T13:55:59;6.53;;;1.30;;
68089;SDS011;54880;50.986;6.990;2022-09-21T13:58:28;6.25;;;1.30;;
68089;SDS011;54880;50.986;6.990;2022-09-21T14:03:31;7.30;;;1.70;;
68089;SDS011;54880;50.986;6.990;2022-09-21T14:06:07;5.15;;;1.23;;
68089;SDS011;54880;50.986;6.990;2022-09-21T14:08:38;5.70;;;1.20;;
68089;SDS011;54880;50.986;6.990;2022-09-21T14:11:51;5.25;;;1.30;;
68089;SDS011;54880;50.986;6.990;2022-09-21T14:24:35;4.93;;;1.10;;
68089;SDS011;54880;50.986;6.990;2022-09-21T14:32:24;4.65;;;1.05;;
68089;SDS011;54880;50.986;6.990;2022-09-21T14:34:52;5.60;;;1.20;;
68089;SDS011;54880;50.986;6.990;2022-09-21T14:37:20;6.20;;;1.10;;
68089;SDS011;54880;50.986;6.990;2022-09-21T14:39:50;6.97;;;1.40;;
68089;SDS011;54880;50.986;6.990;2022-09-21T14:42:16;6.30;;;1.10;;
68089;SDS011;54880;50.986;6.990;2022-09-21T14:44:43;8.95;;;1.27;;
68089;SDS011;54880;50.986;6.990;2022-09-21T14:47:13;5.25;;;1.10;;
68089;SDS011;54880;50.986;6.990;2022-09-21T14:55:15;7.80;;;1.40;;
68089;SDS011;54880;50.986;6.990;2022-09-21T15:00:36;6.28;;;1.35;;
68089;SDS011;54880;50.986;6.990;2022-09-21T15:05:53;4.45;;;1.10;;
68089;SDS011;54880;50.986;6.990;2022-09-21T15:11:23;7.05;;;1.17;;
68089;SDS011;54880;50.986;6.990;2022-09-21T15:21:44;5.25;;;1.20;;
68089;SDS011;54880;50.986;6.990;2022-09-21T15:24:18;7.38;;;1.30;;
68089;SDS011;54880;50.986;6.990;2022-09-21T15:26:43;8.25;;;1.48;;
68089;SDS011;54880;50.986;6.990;2022-09-21T15:29:10;9.97;;;1.63;;
68089;SDS011;54880;50.986;6.990;2022-09-21T15:31:41;5.85;;;1.20;;
68089;SDS011;54880;50.986;6.990;2022-09-21T15:34:07;5.83;;;1.00;;
68089;SDS011;54880;50.986;6.990;2022-09-21T15:36:37;4.40;;;1.08;;
68089;SDS011;54880;50.986;6.990;2022-09-21T15:39:03;4.18;;;0.98;;
68089;SDS011;54880;50.986;6.990;2022-09-21T15:41:39;6.67;;;1.30;;
68089;SDS011;54880;50.986;6.990;2022-09-21T15:44:05;5.60;;;0.90;;
68089;SDS011;54880;50.986;6.990;2022-09-21T15:46:31;5.60;;;1.10;;
68089;SDS011;54880;50.986;6.990;2022-09-21T15:48:56;7.37;;;1.33;;
68089;SDS011;54880;50.986;6.990;2022-09-21T15:51:27;5.50;;;1.30;;
68089;SDS011;54880;50.986;6.990;2022-09-21T15:53:58;4.50;;;1.00;;
68089;SDS011;54880;50.986;6.990;2022-09-21T15:56:28;6.05;;;1.30;;
68089;SDS011;54880;50.986;6.990;2022-09-21T15:58:58;6.33;;;1.40;;
68089;SDS011;54880;50.986;6.990;2022-09-21T16:01:27;5.28;;;1.05;;
68089;SDS011;54880;50.986;6.990;2022-09-21T16:04:03;4.93;;;1.08;;
68089;SDS011;54880;50.986;6.990;2022-09-21T16:06:36;5.83;;;0.93;;
68089;SDS011;54880;50.986;6.990;2022-09-21T16:11:45;8.65;;;1.45;;
68089;SDS011;54880;50.986;6.990;2022-09-21T16:17:06;5.38;;;1.30;;
68089;SDS011;54880;50.986;6.990;2022-09-21T16:22:18;6.50;;;1.27;;
68089;SDS011;54880;50.986;6.990;2022-09-21T16:24:51;6.05;;;1.30;;
68089;SDS011;54880;50.986;6.990;2022-09-21T16:27:19;5.20;;;1.25;;
68089;SDS011;54880;50.986;6.990;2022-09-21T16:29:45;4.53;;;1.08;;
68089;SDS011;54880;50.986;6.990;2022-09-21T16:32:19;5.95;;;1.33;;
68089;SDS011;54880;50.986;6.990;2022-09-21T16:34:45;7.03;;;1.20;;
68089;SDS011;54880;50.986;6.990;2022-09-21T16:42:14;6.47;;;1.27;;
68089;SDS011;54880;50.986;6.990;2022-09-21T16:44:40;3.80;;;1.00;;
68089;SDS011;54880;50.986;6.990;2022-09-21T16:47:12;5.10;;;1.30;;
68089;SDS011;54880;50.986;6.990;2022-09-21T16:49:39;4.18;;;1.30;;
68089;SDS011;54880;50.986;6.990;2022-09-21T16:52:05;5.13;;;1.40;;
68089;SDS011;54880;50.986;6.990;2022-09-21T16:54:31;4.97;;;1.27;;
68089;SDS011;54880;50.986;6.990;2022-09-21T16:56:59;6.15;;;1.33;;
68089;SDS011;54880;50.986;6.990;2022-09-21T16:59:24;7.95;;;1.42;;
68089;SDS011;54880;50.986;6.990;2022-09-21T17:01:51;6.57;;;1.60;;
68089;SDS011;54880;50.986;6.990;2022-09-21T17:04:20;6.07;;;1.40;;
68089;SDS011;54880;50.986;6.990;2022-09-21T17:06:46;6.22;;;1.30;;
68089;SDS011;54880;50.986;6.990;2022-09-21T17:11:43;5.60;;;1.60;;
68089;SDS011;54880;50.986;6.990;2022-09-21T17:14:10;5.40;;;1.58;;
68089;SDS011;54880;50.986;6.990;2022-09-21T17:16:40;5.87;;;1.53;;
68089;SDS011;54880;50.986;6.990;2022-09-21T17:19:05;6.47;;;1.60;;
68089;SDS011;54880;50.986;6.990;2022-09-21T17:21:30;5.97;;;1.50;;
68089;SDS011;54880;50.986;6.990;2022-09-21T17:23:56;5.93;;;1.47;;
68089;SDS011;54880;50.986;6.990;2022-09-21T17:26:21;5.77;;;1.57;;
68089;SDS011;54880;50.986;6.990;2022-09-21T17:28:46;7.53;;;1.80;;
68089;SDS011;54880;50.986;6.990;2022-09-21T17:31:12;6.07;;;1.60;;
68089;SDS011;54880;50.986;6.990;2022-09-21T17:33:38;7.85;;;1.73;;
68089;SDS011;54880;50.986;6.990;2022-09-21T17:36:03;5.37;;;1.70;;
68089;SDS011;54880;50.986;6.990;2022-09-21T17:38:31;6.82;;;1.55;;
68089;SDS011;54880;50.986;6.990;2022-09-21T17:40:56;12.50;;;1.93;;
68089;SDS011;54880;50.986;6.990;2022-09-21T17:48:24;8.07;;;1.83;;
68089;SDS011;54880;50.986;6.990;2022-09-21T17:50:50;5.40;;;1.50;;
68089;SDS011;54880;50.986;6.990;2022-09-21T17:53:15;7.67;;;1.70;;
68089;SDS011;54880;50.986;6.990;2022-09-21T17:56:46;6.40;;;1.83;;
68089;SDS011;54880;50.986;6.990;2022-09-21T17:58:57;6.47;;;1.88;;
68089;SDS011;54880;50.986;6.990;2022-09-21T18:01:27;8.37;;;2.00;;